Time;durP1;ratioP1;P1;durP2;ratioP2;P2;SDS_P1;SDS_P2;PMS_P1;PMS_P2;Temp;Humidity;BMP_temperature;BMP_pressure;BME280_temperature;BME280_humidity;BME280_pressure;Samples;Min_cycle;Max_cycle;Signal;HPM_P1;HPM_P2
2022/02/12 00:00:25;;;;;;;14.88;5.43;;;;;;;0.72;100.00;103345.31;5070973;28;20406;-30
2022/02/12 00:02:54;;;;;;;15.82;5.60;;;;;;;0.74;100.00;103345.16;5070248;28;20139;-31
2022/02/12 00:05:24;;;;;;;13.68;5.10;;;;;;;0.74;100.00;103346.03;5071582;28;20377;-30
2022/02/12 00:07:54;;;;;;;9.93;4.82;;;;;;;0.76;100.00;103345.84;5070876;28;20033;-30
2022/02/12 00:10:25;;;;;;;20.55;5.65;;;;;;;0.76;100.00;103337.59;5071265;28;20040;-29
2022/02/12 00:12:52;;;;;;;11.38;4.80;;;;;;;0.75;100.00;103338.63;5070937;28;20048;-29
2022/02/12 00:15:20;;;;;;;16.38;4.65;;;;;;;0.72;100.00;103331.59;5071222;28;20048;-30
2022/02/12 00:17:49;;;;;;;13.60;4.97;;;;;;;0.72;100.00;103333.47;5071327;28;20040;-29
2022/02/12 00:20:17;;;;;;;10.45;4.68;;;;;;;0.72;100.00;103323.34;5070626;28;20054;-29
2022/02/12 00:22:45;;;;;;;13.45;4.68;;;;;;;0.73;100.00;103325.06;5071192;28;20135;-30
2022/02/12 00:25:13;;;;;;;9.45;3.95;;;;;;;0.73;100.00;103325.06;5071314;28;20106;-29
2022/02/12 00:27:42;;;;;;;10.82;4.72;;;;;;;0.70;100.00;103311.66;5070442;28;20052;-30
2022/02/12 00:30:11;;;;;;;14.95;5.00;;;;;;;0.69;100.00;103307.19;5071045;28;20195;-32
2022/02/12 00:32:38;;;;;;;8.32;3.67;;;;;;;0.71;100.00;103309.78;5070743;28;20394;-30
2022/02/12 00:35:06;;;;;;;15.30;5.35;;;;;;;0.73;100.00;103308.56;5069013;28;20493;-33
2022/02/12 00:37:34;;;;;;;11.73;4.75;;;;;;;0.73;100.00;103305.81;5071233;28;20080;-30
2022/02/12 00:40:04;;;;;;;13.23;4.30;;;;;;;0.74;100.00;103298.44;5070981;28;20055;-30
2022/02/12 00:42:32;;;;;;;9.63;3.63;;;;;;;0.75;100.00;103294.66;5066916;28;20048;-30
2022/02/12 00:45:02;;;;;;;9.85;3.80;;;;;;;0.75;100.00;103301.03;5071123;28;20067;-30
2022/02/12 00:47:30;;;;;;;9.27;3.72;;;;;;;0.76;100.00;103301.88;5071009;28;20386;-29
2022/02/12 00:49:58;;;;;;;9.32;3.60;;;;;;;0.75;100.00;103290.03;5069981;28;20147;-29
2022/02/12 00:52:25;;;;;;;9.98;4.03;;;;;;;0.75;100.00;103290.03;5071124;28;20048;-30
2022/02/12 00:54:53;;;;;;;9.55;3.60;;;;;;;0.73;100.00;103283.84;5071062;28;20059;-29
2022/02/12 00:57:21;;;;;;;7.60;3.15;;;;;;;0.73;100.00;103275.59;5070652;28;20408;-29
2022/02/12 00:59:49;;;;;;;13.43;4.25;;;;;;;0.73;100.00;103280.25;5061894;28;20048;-29
2022/02/12 01:02:18;;;;;;;12.77;3.70;;;;;;;0.73;100.00;103280.25;5068779;28;20163;-29
2022/02/12 01:04:45;;;;;;;8.85;3.00;;;;;;;0.73;100.00;103274.75;5070220;28;20061;-30
2022/02/12 01:07:13;;;;;;;12.70;3.30;;;;;;;0.71;100.00;103274.06;5070962;28;20409;-29
2022/02/12 01:09:42;;;;;;;8.32;2.97;;;;;;;0.72;100.00;103278.53;5070054;28;20053;-30
2022/02/12 01:12:10;;;;;;;10.68;3.17;;;;;;;0.72;100.00;103271.13;5070936;28;20128;-29
2022/02/12 01:14:38;;;;;;;8.55;3.10;;;;;;;0.71;100.00;103271.31;5070741;28;20032;-29
2022/02/12 01:17:05;;;;;;;9.10;3.10;;;;;;;0.69;100.00;103266.84;5058781;28;20045;-30
2022/02/12 01:19:35;;;;;;;10.07;3.08;;;;;;;0.70;100.00;103259.47;5070880;28;20179;-29
2022/02/12 01:22:03;;;;;;;13.63;3.20;;;;;;;0.69;100.00;103268.75;5070533;28;20044;-30
2022/02/12 01:24:30;;;;;;;10.90;3.03;;;;;;;0.68;100.00;103261.53;5070120;28;20402;-29
2022/02/12 01:26:58;;;;;;;9.40;2.80;;;;;;;0.67;100.00;103259.81;5066933;28;20131;-31
2022/02/12 01:29:26;;;;;;;10.48;2.90;;;;;;;0.67;100.00;103248.81;5070546;28;20052;-30
2022/02/12 01:31:55;;;;;;;13.10;3.15;;;;;;;0.66;100.00;103258.09;5069729;28;20064;-29
2022/02/12 01:34:24;;;;;;;10.57;3.22;;;;;;;0.66;100.00;103253.44;5070903;28;20044;-29
2022/02/12 01:36:53;;;;;;;13.43;3.15;;;;;;;0.65;100.00;103250.88;5070437;28;20048;-31
2022/02/12 01:39:21;;;;;;;13.13;3.55;;;;;;;0.62;100.00;103243.84;5069742;28;20044;-30
2022/02/12 01:41:49;;;;;;;7.05;2.67;;;;;;;0.64;100.00;103244.53;5070353;28;20045;-29
2022/02/12 01:44:16;;;;;;;12.88;3.00;;;;;;;0.64;100.00;103238.16;5071219;28;20064;-29
2022/02/12 01:46:44;;;;;;;11.25;3.10;;;;;;;0.64;100.00;103238.16;5074253;28;20056;-29
2022/02/12 01:49:12;;;;;;;8.25;2.50;;;;;;;0.65;100.00;103231.66;5072913;28;20400;-29
2022/02/12 01:51:40;;;;;;;8.57;3.05;;;;;;;0.64;100.00;103227.19;5073312;28;20048;-30
2022/02/12 01:54:09;;;;;;;8.40;3.30;;;;;;;0.65;100.00;103224.25;5073107;28;20056;-29
2022/02/12 01:56:37;;;;;;;8.43;3.03;;;;;;;0.66;100.00;103225.13;5073804;28;20052;-29
2022/02/12 01:59:05;;;;;;;12.50;3.40;;;;;;;0.62;100.00;103223.75;5073381;28;20051;-30
2022/02/12 02:01:33;;;;;;;10.02;3.00;;;;;;;0.63;100.00;103220.84;5073769;28;20543;-29
2022/02/12 02:04:01;;;;;;;10.00;2.90;;;;;;;0.64;100.00;103216.19;5072524;28;20060;-30
2022/02/12 02:06:29;;;;;;;11.00;2.90;;;;;;;0.64;100.00;103211.56;5073078;28;20140;-31
2022/02/12 02:08:57;;;;;;;10.10;2.72;;;;;;;0.62;100.00;103212.75;5073584;28;20051;-30
2022/02/12 02:11:26;;;;;;;10.10;3.00;;;;;;;0.61;100.00;103203.66;5074042;28;20416;-29
2022/02/12 02:13:53;;;;;;;9.43;3.22;;;;;;;0.58;100.00;103200.44;5072809;28;20048;-29
2022/02/12 02:16:21;;;;;;;11.60;3.30;;;;;;;0.57;100.00;103194.09;5073685;28;20055;-29
2022/02/12 02:18:49;;;;;;;11.85;3.65;;;;;;;0.60;100.00;103184.63;5073586;28;20040;-30
2022/02/12 02:21:18;;;;;;;10.45;3.95;;;;;;;0.56;100.00;103177.78;5072870;28;20041;-30
2022/02/12 02:23:47;;;;;;;11.60;3.80;;;;;;;0.56;100.00;103172.28;5073309;28;20040;-29
2022/02/12 02:26:15;;;;;;;10.15;3.15;;;;;;;0.57;100.00;103174.84;5073823;28;20064;-29
2022/02/12 02:28:43;;;;;;;9.57;3.17;;;;;;;0.58;100.00;103173.81;5072547;28;20044;-31
2022/02/12 02:31:11;;;;;;;10.07;3.28;;;;;;;0.60;100.00;103176.41;5073744;28;20476;-29
2022/02/12 02:33:39;;;;;;;9.65;2.80;;;;;;;0.62;100.00;103169.66;5072369;28;20071;-29
2022/02/12 02:36:06;;;;;;;11.82;3.47;;;;;;;0.61;100.00;103173.44;5073082;28;20051;-30
2022/02/12 02:38:34;;;;;;;8.82;2.78;;;;;;;0.62;100.00;103166.91;5073372;28;20048;-30
2022/02/12 02:41:03;;;;;;;12.85;3.53;;;;;;;0.61;100.00;103162.44;5072505;28;20052;-29
2022/02/12 02:43:31;;;;;;;10.45;3.10;;;;;;;0.61;100.00;103156.09;5073200;28;20432;-29
2022/02/12 02:45:59;;;;;;;10.88;3.20;;;;;;;0.60;100.00;103160.75;5072872;28;20060;-31
2022/02/12 02:48:27;;;;;;;13.40;3.10;;;;;;;0.59;100.00;103152.69;5063558;28;20036;-29
2022/02/12 02:56:26;;;;;;;9.80;3.03;;;;;;;0.55;100.00;103143.94;5070608;28;20048;-29
2022/02/12 02:58:59;;;;;;;14.77;4.10;;;;;;;0.57;100.00;103138.28;5072747;28;20049;-31
2022/02/12 03:01:28;;;;;;;11.07;3.17;;;;;;;0.53;100.00;103132.28;5071772;28;20064;-30
2022/02/12 03:03:57;;;;;;;11.35;3.58;;;;;;;0.54;100.00;103127.66;5063546;28;20040;-30
2022/02/12 03:06:28;;;;;;;14.57;3.35;;;;;;;0.52;100.00;103130.56;5072798;28;20041;-30
2022/02/12 03:08:56;;;;;;;9.90;3.00;;;;;;;0.52;100.00;103129.72;5071929;28;20048;-29
2022/02/12 03:11:25;;;;;;;7.13;3.35;;;;;;;0.51;100.00;103128.84;5072511;28;20515;-30
2022/02/12 03:13:56;;;;;;;13.30;3.65;;;;;;;0.49;100.00;103113.56;5072743;28;20048;-29
2022/02/12 03:16:24;;;;;;;11.65;3.40;;;;;;;0.48;100.00;103118.22;5071663;28;20044;-30
2022/02/12 03:18:51;;;;;;;12.27;3.40;;;;;;;0.49;100.00;103108.09;5072648;28;20048;-29
2022/02/12 03:21:19;;;;;;;9.68;2.92;;;;;;;0.50;100.00;103110.66;5072422;28;20035;-29
2022/02/12 03:23:47;;;;;;;12.77;3.97;;;;;;;0.50;100.00;103107.91;5071529;28;20051;-31
2022/02/12 03:26:16;;;;;;;11.85;3.75;;;;;;;0.50;100.00;103109.81;5072245;28;20072;-32
2022/02/12 03:28:44;;;;;;;11.27;3.78;;;;;;;0.49;100.00;103103.44;5072421;28;20048;-30
2022/02/12 03:31:14;;;;;;;14.38;3.78;;;;;;;0.47;100.00;103100.03;5071353;28;20512;-28
2022/02/12 03:33:42;;;;;;;10.57;3.15;;;;;;;0.47;100.00;103102.75;5072309;28;20056;-30
2022/02/12 03:36:10;;;;;;;15.43;3.50;;;;;;;0.49;100.00;103094.34;5072015;28;20489;-32
2022/02/12 03:38:40;;;;;;;10.70;3.60;;;;;;;0.51;100.00;103089.53;5071581;28;20059;-29
2022/02/12 03:41:09;;;;;;;11.70;3.65;;;;;;;0.51;100.00;103081.28;5072073;28;20131;-31
2022/02/12 03:43:38;;;;;;;11.60;2.80;;;;;;;0.50;100.00;103082.34;5072172;28;20056;-29
2022/02/12 03:46:08;;;;;;;9.70;3.47;;;;;;;0.49;100.00;103072.38;5071226;28;20068;-30
2022/02/12 03:48:37;;;;;;;9.70;3.08;;;;;;;0.50;100.00;103076.84;5072061;28;20063;-29
2022/02/12 03:51:05;;;;;;;11.90;3.08;;;;;;;0.50;100.00;103069.47;5071043;28;20052;-29
2022/02/12 03:53:32;;;;;;;11.15;3.20;;;;;;;0.51;100.00;103059.31;5071851;28;20442;-30
2022/02/12 03:56:00;;;;;;;14.20;3.40;;;;;;;0.52;100.00;103063.78;5071757;28;20067;-29
2022/02/12 03:58:28;;;;;;;10.45;3.53;;;;;;;0.52;100.00;103052.81;5070663;28;20053;-28
2022/02/12 04:00:55;;;;;;;16.88;3.83;;;;;;;0.56;100.00;103054.16;5071808;28;20038;-30
2022/02/12 04:03:23;;;;;;;12.52;3.33;;;;;;;0.57;100.00;103051.22;5071397;28;20518;-30
2022/02/12 04:05:52;;;;;;;6.85;2.55;;;;;;;0.59;100.00;103051.06;5070140;28;20516;-29
2022/02/12 04:08:23;;;;;;;9.98;2.80;;;;;;;0.60;100.00;103048.09;5071371;28;20098;-29
2022/02/12 04:10:51;;;;;;;11.43;3.03;;;;;;;0.59;100.00;103043.66;5071580;28;20048;-30
2022/02/12 04:13:20;;;;;;;12.07;3.15;;;;;;;0.60;100.00;103042.59;5070528;28;20451;-29
2022/02/12 04:15:48;;;;;;;12.32;3.45;;;;;;;0.59;100.00;103043.66;5071108;28;20470;-29
2022/02/12 04:18:18;;;;;;;14.90;3.35;;;;;;;0.62;100.00;103032.28;5071091;28;20139;-28
2022/02/12 04:20:46;;;;;;;13.38;3.28;;;;;;;0.65;100.00;103026.44;5070465;28;20045;-30
2022/02/12 04:23:15;;;;;;;11.52;3.08;;;;;;;0.68;100.00;103027.97;5070991;28;20043;-29
2022/02/12 04:25:43;;;;;;;14.35;3.47;;;;;;;0.66;100.00;103022.66;5071226;28;20052;-29
2022/02/12 04:28:12;;;;;;;15.63;3.67;;;;;;;0.66;100.00;103002.56;5070288;28;20041;-28
2022/02/12 04:30:40;;;;;;;9.55;3.30;;;;;;;0.68;100.00;103008.75;5070990;28;20390;-29
2022/02/12 04:33:10;;;;;;;10.50;3.00;;;;;;;0.69;100.00;103004.97;5070528;28;20044;-29
2022/02/12 04:35:38;;;;;;;10.50;3.13;;;;;;;0.67;100.00;102999.66;5070981;28;20049;-28
2022/02/12 04:38:07;;;;;;;9.73;3.47;;;;;;;0.67;100.00;103010.63;5070776;28;20052;-29
2022/02/12 04:40:37;;;;;;;14.02;3.65;;;;;;;0.66;100.00;103000.69;5069912;28;20051;-29
2022/02/12 04:43:05;;;;;;;12.15;3.35;;;;;;;0.65;100.00;102992.63;5070196;28;20507;-29
2022/02/12 04:45:33;;;;;;;11.63;3.40;;;;;;;0.63;100.00;102990.06;5070879;28;20049;-31
2022/02/12 04:48:01;;;;;;;11.65;3.22;;;;;;;0.63;100.00;102991.94;5070006;28;20040;-30
2022/02/12 04:50:29;;;;;;;13.23;3.40;;;;;;;0.63;100.00;102994.69;5070969;28;20061;-28
2022/02/12 04:52:57;;;;;;;11.15;3.17;;;;;;;0.62;100.00;102993.84;5070425;28;20106;-30
2022/02/12 04:55:26;;;;;;;8.23;2.55;;;;;;;0.63;100.00;102989.19;5069561;28;20056;-30
2022/02/12 04:57:56;;;;;;;14.35;3.78;;;;;;;0.62;100.00;102987.47;5070779;28;20048;-29
2022/02/12 05:00:23;;;;;;;11.93;2.95;;;;;;;0.62;100.00;102977.34;5070919;28;20056;-29
2022/02/12 05:02:51;;;;;;;12.93;3.80;;;;;;;0.62;100.00;102982.00;5070159;28;20405;-29
2022/02/12 05:05:19;;;;;;;12.30;3.60;;;;;;;0.63;100.00;102983.69;5070732;28;20749;-30
2022/02/12 05:07:46;;;;;;;13.80;3.70;;;;;;;0.61;100.00;102983.03;5070596;28;20041;-29
2022/02/12 05:10:14;;;;;;;10.00;3.38;;;;;;;0.62;100.00;102976.50;5069627;28;20313;-31
2022/02/12 05:12:42;;;;;;;13.82;3.50;;;;;;;0.61;100.00;102969.28;5070462;28;20501;-31
2022/02/12 05:15:11;;;;;;;15.40;3.60;;;;;;;0.62;100.00;102971.00;5070127;28;20033;-29
2022/02/12 05:17:39;;;;;;;10.73;3.45;;;;;;;0.62;100.00;102963.63;5071337;28;20113;-29
2022/02/12 05:20:07;;;;;;;11.98;3.05;;;;;;;0.62;100.00;102971.00;5074508;28;20048;-30
2022/02/12 05:22:35;;;;;;;10.98;3.15;;;;;;;0.61;100.00;102970.16;5073740;28;20131;-30
2022/02/12 05:25:05;;;;;;;11.35;3.65;;;;;;;0.61;100.00;102961.91;5074615;28;20040;-30
2022/02/12 05:27:33;;;;;;;12.25;3.25;;;;;;;0.62;100.00;102966.38;5074782;28;20504;-29
2022/02/12 05:30:01;;;;;;;11.50;3.22;;;;;;;0.64;100.00;102953.31;5073638;28;20059;-28
2022/02/12 05:32:30;;;;;;;16.58;3.42;;;;;;;0.66;100.00;102947.63;5074723;28;20064;-29
2022/02/12 05:34:58;;;;;;;15.63;3.40;;;;;;;0.63;100.00;102951.59;5074039;28;20060;-29
2022/02/12 05:37:26;;;;;;;15.23;3.50;;;;;;;0.63;100.00;102937.84;5073753;28;20131;-29
2022/02/12 05:39:54;;;;;;;13.52;4.38;;;;;;;0.65;100.00;102932.19;5074115;28;20048;-30
2022/02/12 05:42:21;;;;;;;12.48;3.90;;;;;;;0.65;100.00;102924.78;5073494;28;20047;-30
2022/02/12 05:44:51;;;;;;;13.32;3.30;;;;;;;0.65;100.00;102927.53;5073315;28;20064;-29
2022/02/12 05:47:19;;;;;;;16.98;3.65;;;;;;;0.63;100.00;102924.13;5074087;28;20076;-29
2022/02/12 05:49:48;;;;;;;12.52;3.33;;;;;;;0.66;100.00;102922.91;5073894;28;20143;-31
2022/02/12 05:52:15;;;;;;;15.65;3.83;;;;;;;0.66;100.00;102912.78;5073503;28;20053;-28
2022/02/12 05:54:43;;;;;;;11.80;3.40;;;;;;;0.68;100.00;102899.72;5074294;28;20051;-29
2022/02/12 05:57:11;;;;;;;10.88;3.00;;;;;;;0.70;100.00;102894.03;5073987;28;20056;-28
2022/02/12 05:59:39;;;;;;;12.80;3.47;;;;;;;0.69;100.00;102893.19;5073059;28;20072;-29
2022/02/12 06:02:07;;;;;;;11.95;3.30;;;;;;;0.69;100.00;102886.81;5073883;28;20087;-29
2022/02/12 06:04:35;;;;;;;14.70;4.43;;;;;;;0.68;100.00;102898.84;5073222;28;20044;-28
2022/02/12 06:07:04;;;;;;;10.30;3.63;;;;;;;0.66;100.00;102885.28;5073645;28;20044;-28
2022/02/12 06:09:32;;;;;;;10.98;3.85;;;;;;;0.66;100.00;102885.28;5073694;28;20048;-28
2022/02/12 06:12:00;;;;;;;13.32;3.95;;;;;;;0.66;100.00;102888.03;5072678;28;20067;-29
2022/02/12 06:14:27;;;;;;;12.27;3.50;;;;;;;0.64;100.00;102889.25;5073705;28;20041;-29
2022/02/12 06:16:57;;;;;;;13.85;3.97;;;;;;;0.65;100.00;102880.84;5073309;28;20053;-29
2022/02/12 06:19:25;;;;;;;13.65;3.80;;;;;;;0.68;100.00;102874.13;5072980;28;20127;-30
2022/02/12 06:21:56;;;;;;;14.43;3.92;;;;;;;0.65;100.00;102872.59;5073543;28;20060;-30
2022/02/12 06:24:25;;;;;;;11.57;4.18;;;;;;;0.67;100.00;102859.53;5073942;28;20041;-29
2022/02/12 06:26:56;;;;;;;10.55;3.97;;;;;;;0.69;100.00;102864.84;5072377;28;20047;-28
2022/02/12 06:29:24;;;;;;;10.82;4.60;;;;;;;0.71;100.00;102868.28;5072616;28;20051;-29
2022/02/12 06:31:52;;;;;;;13.00;4.40;;;;;;;0.74;100.00;102854.16;5073387;28;20401;-28
2022/02/12 06:34:20;;;;;;;11.88;4.05;;;;;;;0.77;100.00;102850.19;5072919;28;20054;-32
2022/02/12 06:36:48;;;;;;;12.00;4.28;;;;;;;0.81;100.00;102855.09;5072897;28;20064;-30
2022/02/12 06:39:15;;;;;;;11.20;4.28;;;;;;;0.83;100.00;102854.94;5073322;28;20692;-28
2022/02/12 06:41:45;;;;;;;10.35;4.15;;;;;;;0.86;100.00;102851.81;5072244;28;20535;-30
2022/02/12 06:44:12;;;;;;;16.20;5.22;;;;;;;0.87;100.00;102845.28;5072816;28;20064;-30
2022/02/12 06:46:40;;;;;;;13.90;4.22;;;;;;;0.91;100.00;102846.63;5072071;28;20467;-28
2022/02/12 06:49:08;;;;;;;14.00;4.38;;;;;;;0.93;100.00;102847.28;5072578;28;20044;-29
2022/02/12 06:51:38;;;;;;;16.55;4.93;;;;;;;0.98;100.00;102850.34;5072252;28;20053;-29
2022/02/12 06:54:06;;;;;;;10.98;4.88;;;;;;;0.98;100.00;102842.09;5071705;28;20405;-30
2022/02/12 06:56:34;;;;;;;12.75;4.70;;;;;;;1.00;100.00;102838.09;5072247;28;20051;-29
2022/02/12 06:59:03;;;;;;;11.65;5.20;;;;;;;1.04;100.00;102839.44;5072555;28;20052;-30
2022/02/12 07:01:30;;;;;;;12.52;4.70;;;;;;;1.07;100.00;102826.34;5071433;28;20052;-29
2022/02/12 07:03:58;;;;;;;13.63;4.65;;;;;;;1.12;100.00;102826.66;5071692;28;20080;-30
2022/02/12 07:06:26;;;;;;;12.07;4.57;;;;;;;1.13;100.00;102826.47;5071566;28;20160;-31
2022/02/12 07:08:54;;;;;;;12.18;4.38;;;;;;;1.15;100.00;102820.78;5070692;28;20048;-29
2022/02/12 07:11:21;;;;;;;12.93;4.78;;;;;;;1.15;100.00;102818.88;5071318;28;20045;-28
2022/02/12 07:13:50;;;;;;;12.18;4.97;;;;;;;1.14;100.00;102819.91;5071496;28;20044;-30
2022/02/12 07:16:19;;;;;;;9.95;4.30;;;;;;;1.15;100.00;102818.03;5070409;28;20053;-30
2022/02/12 07:18:48;;;;;;;12.45;4.72;;;;;;;1.15;100.00;102821.63;5071012;28;20033;-28
2022/02/12 07:21:16;;;;;;;10.88;4.68;;;;;;;1.17;100.00;102824.19;5071274;28;20118;-30
2022/02/12 07:23:44;;;;;;;14.27;4.95;;;;;;;1.18;100.00;102823.16;5052800;28;20055;-29
2022/02/12 07:26:12;;;;;;;13.10;5.15;;;;;;;1.17;100.00;102818.69;5069579;28;20064;-32
2022/02/12 07:28:41;;;;;;;14.65;4.80;;;;;;;1.17;100.00;102822.28;5071026;28;20052;-30
2022/02/12 07:31:12;;;;;;;18.60;5.03;;;;;;;1.18;100.00;102810.25;5070764;28;20040;-29
2022/02/12 07:33:41;;;;;;;12.38;5.20;;;;;;;1.24;100.00;102812.22;5070753;28;20056;-31
2022/02/12 07:36:11;;;;;;;15.48;5.15;;;;;;;1.26;100.00;102821.16;5069747;28;20048;-29
2022/02/12 07:38:39;;;;;;;13.68;5.13;;;;;;;1.31;100.00;102813.19;5070397;28;20094;-29
2022/02/12 07:41:07;;;;;;;14.02;4.95;;;;;;;1.34;100.00;102815.56;5067952;28;20052;-31
2022/02/12 07:43:35;;;;;;;12.68;5.40;;;;;;;1.40;100.00;102821.34;5069673;28;20067;-29
2022/02/12 07:46:03;;;;;;;15.85;5.43;;;;;;;1.47;100.00;102817.63;5070492;28;20053;-29
2022/02/12 07:48:31;;;;;;;14.85;5.20;;;;;;;1.54;100.00;102817.72;5070464;28;20592;-30
2022/02/12 07:51:00;;;;;;;14.15;5.00;;;;;;;1.64;100.00;102812.75;5070059;28;20052;-32
2022/02/12 07:53:27;;;;;;;14.95;5.28;;;;;;;1.70;100.00;102812.84;5070729;28;20397;-30
2022/02/12 07:55:55;;;;;;;16.15;4.85;;;;;;;1.79;100.00;102813.63;5069898;28;20051;-31
2022/02/12 07:58:23;;;;;;;13.07;4.88;;;;;;;1.90;100.00;102807.59;5069475;28;20413;-29
2022/02/12 08:00:50;;;;;;;12.63;4.78;;;;;;;1.99;100.00;102814.69;5070066;28;20076;-31
2022/02/12 08:03:18;;;;;;;12.27;4.80;;;;;;;2.05;100.00;102810.28;5070055;28;20043;-29
2022/02/12 08:05:46;;;;;;;14.40;5.18;;;;;;;2.12;100.00;102807.63;5069453;28;20036;-29
2022/02/12 08:08:15;;;;;;;10.45;4.63;;;;;;;2.20;100.00;102818.53;5069866;28;20505;-29
2022/02/12 08:13:28;;;;;;;12.68;4.78;;;;;;;2.35;100.00;102817.41;5068625;28;20094;-30
2022/02/12 08:15:56;;;;;;;12.52;4.80;;;;;;;2.42;100.00;102806.44;5070153;28;20055;-30
2022/02/12 08:18:24;;;;;;;15.52;5.10;;;;;;;2.49;100.00;102806.50;5069811;28;20056;-29
2022/02/12 08:20:51;;;;;;;15.15;5.20;;;;;;;2.63;100.00;102806.41;5069689;28;20389;-29
2022/02/12 08:23:21;;;;;;;13.70;5.28;;;;;;;2.82;100.00;102801.25;5071361;28;20046;-31
2022/02/12 08:25:49;;;;;;;8.38;4.07;;;;;;;2.99;100.00;102797.16;5068643;28;20066;-30
2022/02/12 08:28:17;;;;;;;10.02;4.40;;;;;;;3.23;100.00;102798.56;5071049;28;20075;-30
2022/02/12 08:30:44;;;;;;;9.40;4.70;;;;;;;3.52;100.00;102800.22;5070985;28;20044;-31
2022/02/12 08:33:12;;;;;;;13.05;4.78;;;;;;;3.72;100.00;102792.88;5070830;28;20094;-30
2022/02/12 08:35:53;;;;;;;13.30;5.35;;;;;;;3.94;100.00;102790.84;5070934;28;20045;-31
2022/02/12 08:38:23;;;;;;;11.45;4.78;;;;;;;4.06;100.00;102778.09;5070980;28;20041;-31
2022/02/12 08:40:51;;;;;;;10.60;4.60;;;;;;;4.25;100.00;102777.28;5069476;28;20155;-31
2022/02/12 08:43:19;;;;;;;8.95;4.60;;;;;;;4.43;100.00;102772.00;5070795;28;20041;-31
2022/02/12 08:45:47;;;;;;;10.90;4.13;;;;;;;4.58;100.00;102769.06;5070964;28;20136;-31
2022/02/12 08:48:15;;;;;;;9.52;4.22;;;;;;;4.84;100.00;102769.00;5069540;28;20055;-31
2022/02/12 08:50:44;;;;;;;11.98;4.90;;;;;;;5.16;100.00;102764.50;5070775;28;20049;-30
2022/02/12 08:53:12;;;;;;;9.85;3.90;;;;;;;5.30;100.00;102758.91;5068560;28;20060;-30
2022/02/12 08:55:41;;;;;;;12.60;4.63;;;;;;;5.45;100.00;102759.50;5070567;28;20083;-31
2022/02/12 08:58:14;;;;;;;11.00;4.20;;;;;;;5.61;100.00;102761.78;5070766;28;20087;-32
2022/02/12 09:00:42;;;;;;;10.80;4.30;;;;;;;5.73;100.00;102753.63;5068549;28;20505;-33
2022/02/12 09:03:13;;;;;;;14.55;4.80;;;;;;;5.79;100.00;102758.31;5070584;28;20045;-30
2022/02/12 09:05:40;;;;;;;12.23;4.65;;;;;;;5.87;100.00;102749.72;5070413;28;20049;-35
2022/02/12 09:08:10;;;;;;;12.05;4.60;;;;;;;5.96;100.00;102737.34;5069659;28;20124;-34
2022/02/12 09:10:38;;;;;;;11.93;4.47;;;;;;;6.05;98.75;102746.22;5069716;28;20520;-32
2022/02/12 09:13:07;;;;;;;12.05;4.55;;;;;;;6.31;100.00;102750.75;5070508;28;20041;-32
2022/02/12 09:15:35;;;;;;;8.73;4.38;;;;;;;6.47;98.85;102741.88;5069880;28;20040;-32
2022/02/12 09:18:03;;;;;;;10.05;4.45;;;;;;;6.60;97.95;102740.91;5069959;28;20086;-32
2022/02/12 09:20:31;;;;;;;12.93;4.53;;;;;;;6.67;96.69;102752.78;5070793;28;20083;-31
2022/02/12 09:22:59;;;;;;;8.18;3.95;;;;;;;6.77;96.96;102758.69;5069923;28;20131;-32
2022/02/12 09:25:27;;;;;;;10.35;4.28;;;;;;;6.74;95.05;102739.72;5070580;28;20348;-34
2022/02/12 09:27:55;;;;;;;12.25;4.45;;;;;;;6.83;95.73;102741.97;5070573;28;20036;-32
2022/02/12 09:30:24;;;;;;;13.05;4.50;;;;;;;6.81;94.55;102740.50;5069593;28;20048;-31
2022/02/12 09:32:53;;;;;;;14.13;5.53;;;;;;;6.74;94.35;102742.50;5070053;28;20489;-32
2022/02/12 09:35:20;;;;;;;15.75;5.07;;;;;;;6.77;95.09;102742.91;5070492;28;20048;-33
2022/02/12 09:37:48;;;;;;;11.02;4.60;;;;;;;6.79;94.88;102745.44;5069989;28;20044;-30
2022/02/12 09:40:16;;;;;;;10.02;4.88;;;;;;;6.76;93.99;102734.81;5070475;28;20055;-32
2022/02/12 09:42:47;;;;;;;17.25;5.00;;;;;;;6.71;94.75;102741.03;5069359;28;20095;-33
2022/02/12 09:45:15;;;;;;;14.68;5.30;;;;;;;6.69;95.25;102740.41;5068229;28;20052;-30
2022/02/12 09:47:48;;;;;;;11.18;5.20;;;;;;;6.74;95.70;102725.84;5070295;28;20051;-31
2022/02/12 09:50:18;;;;;;;16.60;5.57;;;;;;;6.78;95.47;102713.22;5069741;28;20067;-30
2022/02/12 09:52:48;;;;;;;16.73;5.40;;;;;;;6.77;95.17;102717.94;5070459;28;20045;-30
2022/02/12 09:55:17;;;;;;;16.70;5.90;;;;;;;6.74;94.62;102701.72;5070533;28;20413;-31
2022/02/12 09:57:45;;;;;;;13.60;4.90;;;;;;;6.74;95.54;102712.84;5060513;28;20051;-31
2022/02/12 10:00:17;;;;;;;14.60;5.38;;;;;;;6.77;95.20;102714.31;5070541;28;20044;-31
2022/02/12 10:02:47;;;;;;;12.30;5.35;;;;;;;6.82;94.69;102709.75;5070245;28;20067;-31
2022/02/12 10:05:20;;;;;;;13.02;5.18;;;;;;;6.82;94.06;102708.91;5069790;28;20390;-32
2022/02/12 10:07:49;;;;;;;16.42;5.97;;;;;;;6.90;93.71;102716.94;5073892;28;20564;-33
2022/02/12 10:10:18;;;;;;;14.18;5.50;;;;;;;6.97;93.96;102716.88;5073817;28;20044;-32
2022/02/12 10:12:46;;;;;;;14.35;5.40;;;;;;;7.09;93.87;102713.09;5072979;28;20048;-36
2022/02/12 10:15:24;;;;;;;16.00;5.75;;;;;;;7.24;93.04;102713.56;5073822;28;20071;-32
2022/02/12 10:17:56;;;;;;;14.60;5.68;;;;;;;7.29;91.98;102720.34;5072921;28;20408;-32
2022/02/12 10:20:26;;;;;;;12.05;5.00;;;;;;;7.33;91.12;102703.00;5073581;28;20041;-31
2022/02/12 10:22:54;;;;;;;15.60;5.20;;;;;;;7.45;91.82;102709.44;5073574;28;20505;-31
2022/02/12 10:25:22;;;;;;;16.63;5.88;;;;;;;7.46;90.61;102710.31;5060705;28;20439;-32
2022/02/12 10:27:51;;;;;;;16.08;6.50;;;;;;;7.42;90.71;102709.91;5073006;28;20052;-32
2022/02/12 10:30:18;;;;;;;19.00;5.60;;;;;;;7.45;91.06;102703.06;5073012;28;20036;-30
2022/02/12 10:32:47;;;;;;;13.02;6.05;;;;;;;7.55;91.61;102698.66;5072201;28;20497;-33
2022/02/12 10:35:16;;;;;;;15.75;6.25;;;;;;;7.52;89.63;102690.78;5069509;28;20048;-31
2022/02/12 10:37:45;;;;;;;19.67;6.53;;;;;;;7.43;88.92;102696.88;5073687;28;20045;-30
2022/02/12 10:40:14;;;;;;;13.48;5.78;;;;;;;7.37;90.13;102695.06;5070663;28;20052;-31
2022/02/12 10:42:44;;;;;;;17.17;5.65;;;;;;;7.38;90.13;102677.31;5072762;28;20048;-32
2022/02/12 10:45:16;;;;;;;21.92;6.75;;;;;;;7.47;90.05;102673.13;5072789;28;20083;-34
2022/02/12 10:47:44;;;;;;;15.83;5.00;;;;;;;7.46;89.39;102676.97;5072135;28;20052;-30
2022/02/12 10:50:12;;;;;;;13.05;5.15;;;;;;;7.41;89.44;102666.56;5072916;28;20045;-31
2022/02/12 10:52:43;;;;;;;14.52;5.22;;;;;;;7.36;88.32;102657.25;5072377;28;20045;-31
2022/02/12 10:55:31;;;;;;;14.40;5.57;;;;;;;7.31;88.30;102663.50;5072256;28;20056;-31
2022/02/12 10:58:02;;;;;;;16.08;5.80;;;;;;;7.36;89.83;102655.31;5071536;28;20094;-30
2022/02/12 11:00:32;;;;;;;15.40;5.75;;;;;;;7.40;88.76;102658.44;5071012;28;20060;-32
2022/02/12 11:03:04;;;;;;;12.90;4.78;;;;;;;7.30;88.26;102650.69;5070734;28;20048;-31
2022/02/12 11:05:33;;;;;;;;;;;;;;;7.33;88.36;102649.38;5070266;28;20425;-31
2022/02/12 11:08:03;;;;;;;14.65;4.93;;;;;;;7.38;89.47;102639.28;5070269;28;19927;-32
2022/02/12 11:10:31;;;;;;;12.02;4.22;;;;;;;7.49;89.53;102632.06;5071491;28;20053;-34
2022/02/12 11:12:59;;;;;;;14.50;5.07;;;;;;;7.63;88.02;102622.44;5071615;28;20067;-30
2022/02/12 11:15:29;;;;;;;19.92;5.70;;;;;;;7.60;86.67;102625.69;5070504;28;20075;-30
2022/02/12 11:18:11;;;;;;;13.23;4.72;;;;;;;7.60;86.47;102618.19;5071400;28;20074;-30
2022/02/12 11:20:40;;;;;;;14.38;4.18;;;;;;;7.61;85.04;102625.47;5071333;28;20100;-30
2022/02/12 11:23:28;;;;;;;11.23;4.03;;;;;;;7.67;84.52;102614.50;5071013;28;20490;-29
2022/02/12 11:26:20;;;;;;;13.32;4.13;;;;;;;7.74;84.83;102606.91;5065108;28;20623;-32
2022/02/12 11:28:49;;;;;;;14.38;3.85;;;;;;;7.78;84.66;102597.88;5070003;28;20454;-32
2022/02/12 11:31:19;;;;;;;12.45;3.92;;;;;;;7.76;84.30;102588.91;5070818;28;20048;-31
2022/02/12 11:34:04;;;;;;;12.90;3.90;;;;;;;7.69;82.65;102576.19;5071404;28;20505;-32